createdAt,value
2022-09-09T00:01:46.153Z,3.80
2022-09-09T00:04:19.720Z,3.63
2022-09-09T00:06:48.713Z,3.78
2022-09-09T00:09:19.176Z,3.58
2022-09-09T00:11:49.864Z,3.47
2022-09-09T00:14:23.782Z,3.50
2022-09-09T00:16:54.495Z,3.70
2022-09-09T00:19:26.295Z,3.67
2022-09-09T00:21:59.573Z,3.50
2022-09-09T00:24:30.559Z,4.55
2022-09-09T00:27:03.071Z,3.88
2022-09-09T00:29:36.592Z,4.10
2022-09-09T00:32:14.047Z,4.03
2022-09-09T00:34:46.023Z,3.40
2022-09-09T00:37:14.401Z,4.22
2022-09-09T00:39:44.874Z,4.15
2022-09-09T00:42:16.270Z,4.30
2022-09-09T00:44:53.738Z,4.25
2022-09-09T00:47:43.363Z,4.50
2022-09-09T00:50:17.187Z,4.22
2022-09-09T00:52:50.431Z,3.90
2022-09-09T00:55:20.793Z,4.78
2022-09-09T00:57:51.418Z,4.68
2022-09-09T01:00:21.481Z,4.10
2022-09-09T01:02:55.473Z,3.92
2022-09-09T01:05:28.657Z,3.45
2022-09-09T01:07:58.446Z,3.78
2022-09-09T01:10:33.534Z,4.18
2022-09-09T01:13:06.431Z,3.33
2022-09-09T01:15:35.373Z,3.40
2022-09-09T01:18:07.152Z,3.47
2022-09-09T01:20:40.813Z,3.13
2022-09-09T01:23:23.136Z,3.38
2022-09-09T01:26:07.791Z,2.80
2022-09-09T01:28:37.970Z,2.95
2022-09-09T01:31:07.042Z,2.90
2022-09-09T01:33:35.555Z,3.13
2022-09-09T01:36:08.540Z,3.00
2022-09-09T01:38:37.506Z,2.67
2022-09-09T01:41:07.299Z,3.05
2022-09-09T01:43:35.723Z,2.55
2022-09-09T01:46:04.270Z,2.58
2022-09-09T01:48:32.814Z,2.47
2022-09-09T01:51:01.125Z,2.30
2022-09-09T01:53:29.643Z,2.50
2022-09-09T01:56:02.512Z,1.92
2022-09-09T01:58:35.132Z,1.70
2022-09-09T02:01:09.159Z,1.40
2022-09-09T02:03:38.234Z,1.50
2022-09-09T02:06:10.830Z,1.50
2022-09-09T02:08:43.277Z,1.60
2022-09-09T02:11:14.390Z,1.33
2022-09-09T02:13:45.701Z,1.42
2022-09-09T02:16:17.422Z,1.48
2022-09-09T02:18:47.927Z,1.63
2022-09-09T02:21:16.669Z,1.23
2022-09-09T02:23:45.520Z,1.30
2022-09-09T02:26:20.530Z,1.65
2022-09-09T02:28:51.186Z,1.30
2022-09-09T02:31:23.991Z,1.65
2022-09-09T02:33:55.155Z,1.70
2022-09-09T02:36:24.956Z,1.50
2022-09-09T02:38:54.914Z,1.67
2022-09-09T02:41:24.445Z,1.13
2022-09-09T02:43:54.122Z,1.40
2022-09-09T02:46:29.097Z,1.35
2022-09-09T02:49:02.991Z,1.30
2022-09-09T02:51:33.820Z,1.40
2022-09-09T02:54:06.584Z,1.65
2022-09-09T02:56:35.685Z,1.38
2022-09-09T02:59:07.313Z,1.38
2022-09-09T03:01:36.626Z,1.40
2022-09-09T03:04:06.154Z,1.50
2022-09-09T03:06:34.515Z,1.30
2022-09-09T03:09:03.827Z,1.10
2022-09-09T03:11:32.120Z,1.40
2022-09-09T03:14:00.418Z,1.40
2022-09-09T03:16:30.239Z,1.48
2022-09-09T03:18:58.625Z,1.20
2022-09-09T03:21:26.898Z,1.30
2022-09-09T03:23:55.197Z,2.08
2022-09-09T03:26:23.957Z,1.40
2022-09-09T03:28:53.251Z,1.85
2022-09-09T03:31:22.309Z,1.63
2022-09-09T03:33:51.951Z,1.60
2022-09-09T03:36:20.310Z,1.48
2022-09-09T03:38:48.667Z,1.50
2022-09-09T03:41:16.856Z,1.70
2022-09-09T03:43:45.582Z,1.60
2022-09-09T03:46:13.990Z,1.40
2022-09-09T03:48:42.243Z,1.45
2022-09-09T03:51:11.876Z,1.42
2022-09-09T03:53:40.719Z,1.77
2022-09-09T03:56:09.340Z,1.35
2022-09-09T03:58:38.218Z,1.67
2022-09-09T04:01:07.177Z,1.17
2022-09-09T04:03:35.447Z,1.50
2022-09-09T04:06:05.083Z,1.45
2022-09-09T04:08:34.854Z,1.80
2022-09-09T04:11:06.302Z,1.50
2022-09-09T04:13:36.093Z,1.27
2022-09-09T04:16:05.662Z,1.58
2022-09-09T04:18:34.262Z,1.88
2022-09-09T04:21:02.551Z,1.35
2022-09-09T04:23:31.242Z,1.55
2022-09-09T04:26:01.787Z,1.67
2022-09-09T04:28:31.485Z,1.50
2022-09-09T04:31:01.935Z,1.63
2022-09-09T04:33:32.294Z,1.75
2022-09-09T04:36:00.647Z,1.75
2022-09-09T04:38:28.913Z,1.75
2022-09-09T04:40:57.843Z,1.67
2022-09-09T04:43:27.971Z,1.50
2022-09-09T04:45:56.754Z,1.70
2022-09-09T04:48:26.279Z,1.80
2022-09-09T04:50:58.265Z,1.65
2022-09-09T04:53:27.528Z,1.75
2022-09-09T04:55:55.973Z,1.88
2022-09-09T04:58:24.622Z,1.92
2022-09-09T05:00:54.365Z,2.33
2022-09-09T05:03:22.669Z,1.95
2022-09-09T05:05:50.943Z,1.70
2022-09-09T05:08:19.173Z,2.15
2022-09-09T05:10:47.418Z,1.80
2022-09-09T05:13:15.632Z,1.85
2022-09-09T05:15:44.156Z,2.40
2022-09-09T05:18:13.718Z,2.10
2022-09-09T05:20:43.523Z,1.98
2022-09-09T05:23:12.250Z,1.88
2022-09-09T05:25:41.370Z,1.95
2022-09-09T05:28:09.628Z,2.10
2022-09-09T05:30:37.941Z,2.22
2022-09-09T05:33:07.301Z,2.38
2022-09-09T05:35:36.913Z,2.42
2022-09-09T05:38:05.290Z,2.40
2022-09-09T05:40:33.594Z,2.20
2022-09-09T05:43:03.811Z,2.50
2022-09-09T05:45:32.068Z,2.42
2022-09-09T05:48:01.103Z,1.95
2022-09-09T05:50:31.621Z,2.05
2022-09-09T05:53:01.429Z,2.20
2022-09-09T05:55:29.662Z,2.22
2022-09-09T05:57:57.860Z,1.80
2022-09-09T06:00:26.108Z,2.15
2022-09-09T06:02:54.846Z,2.10
2022-09-09T06:05:23.891Z,1.85
2022-09-09T06:07:55.155Z,2.20
2022-09-09T06:10:24.788Z,2.17
2022-09-09T06:12:55.441Z,2.30
2022-09-09T06:15:23.861Z,2.40
2022-09-09T06:17:57.228Z,2.22
2022-09-09T06:20:25.724Z,2.58
2022-09-09T06:22:54.023Z,2.92
2022-09-09T06:25:22.982Z,3.13
2022-09-09T06:27:52.919Z,2.35
2022-09-09T06:30:21.167Z,2.30
2022-09-09T06:32:50.827Z,2.80
2022-09-09T06:35:19.081Z,2.75
2022-09-09T06:37:49.812Z,3.05
2022-09-09T06:40:18.522Z,3.28
2022-09-09T06:42:46.816Z,2.60
2022-09-09T06:45:16.566Z,2.97
2022-09-09T06:47:44.868Z,2.83
2022-09-09T06:50:13.271Z,2.92
2022-09-09T06:52:41.490Z,2.78
2022-09-09T06:55:10.353Z,2.85
2022-09-09T06:57:38.579Z,2.80
2022-09-09T07:00:07.323Z,2.80
2022-09-09T07:02:40.443Z,2.97
2022-09-09T07:05:09.529Z,2.83
2022-09-09T07:07:38.623Z,2.83
2022-09-09T07:10:08.578Z,3.30
2022-09-09T07:12:36.781Z,3.22
2022-09-09T07:15:05.960Z,3.22
2022-09-09T07:17:34.196Z,3.10
2022-09-09T07:20:05.202Z,3.53
2022-09-09T07:22:34.080Z,3.20
2022-09-09T07:25:05.562Z,2.70
2022-09-09T07:27:33.881Z,2.83
2022-09-09T07:30:03.596Z,3.28
2022-09-09T07:32:32.411Z,2.97
2022-09-09T07:35:00.916Z,2.88
2022-09-09T07:37:35.929Z,3.13
2022-09-09T07:40:06.220Z,3.00
2022-09-09T07:42:34.504Z,2.67
2022-09-09T07:45:02.808Z,2.85
2022-09-09T07:47:31.114Z,2.63
2022-09-09T07:49:59.911Z,3.15
2022-09-09T07:52:28.446Z,2.60
2022-09-09T07:54:58.302Z,2.50
2022-09-09T07:57:26.910Z,2.63
2022-09-09T07:59:55.406Z,2.70
2022-09-09T08:02:23.966Z,2.58
2022-09-09T08:04:52.562Z,2.58
2022-09-09T08:07:22.439Z,2.42
2022-09-09T08:09:50.690Z,2.60
2022-09-09T08:12:20.395Z,2.50
2022-09-09T08:14:49.570Z,2.67
2022-09-09T08:17:17.960Z,2.25
2022-09-09T08:19:46.214Z,2.30
2022-09-09T08:22:14.525Z,2.80
2022-09-09T08:24:43.450Z,2.60
2022-09-09T08:27:11.726Z,2.38
2022-09-09T08:29:41.324Z,2.35
2022-09-09T08:32:09.700Z,2.20
2022-09-09T08:34:41.167Z,2.47
2022-09-09T08:37:09.841Z,2.13
2022-09-09T08:39:38.090Z,2.13
2022-09-09T08:42:14.713Z,2.00
2022-09-09T08:44:51.705Z,2.60
2022-09-09T08:47:24.793Z,2.08
2022-09-09T08:50:07.877Z,2.35
2022-09-09T08:52:40.944Z,2.05
2022-09-09T08:55:16.281Z,2.05
2022-09-09T08:57:46.609Z,1.90
2022-09-09T09:00:16.762Z,2.42
2022-09-09T09:02:47.015Z,2.30
2022-09-09T09:05:22.181Z,2.72
2022-09-09T09:07:59.418Z,2.10
2022-09-09T09:10:42.163Z,2.42
2022-09-09T09:13:15.044Z,2.20
2022-09-09T09:15:45.451Z,2.28
2022-09-09T09:18:15.226Z,1.98
2022-09-09T09:20:47.007Z,2.20
2022-09-09T09:23:19.203Z,2.10
2022-09-09T09:25:47.449Z,1.70
2022-09-09T09:28:19.164Z,3.20
2022-09-09T09:30:53.503Z,2.50
2022-09-09T09:33:25.761Z,2.40
2022-09-09T09:35:54.566Z,2.08
2022-09-09T09:41:12.568Z,1.73
2022-09-09T09:43:43.388Z,2.03
2022-09-09T09:46:24.550Z,2.17
2022-09-09T09:48:59.286Z,2.25
2022-09-09T09:51:28.022Z,3.15
2022-09-09T09:53:56.917Z,2.22
2022-09-09T09:56:31.472Z,2.58
2022-09-09T09:59:00.073Z,2.03
2022-09-09T10:01:32.302Z,2.08
2022-09-09T10:04:02.674Z,2.38
2022-09-09T10:06:34.855Z,1.77
2022-09-09T10:09:05.238Z,2.08
2022-09-09T10:11:39.084Z,1.70
2022-09-09T10:14:11.249Z,2.42
2022-09-09T10:16:47.754Z,2.17
2022-09-09T10:19:16.823Z,2.30
2022-09-09T10:21:56.692Z,2.60
2022-09-09T10:24:45.359Z,2.20
2022-09-09T10:27:18.327Z,2.10
2022-09-09T10:29:56.310Z,2.17
2022-09-09T10:32:35.949Z,2.08
2022-09-09T10:35:07.573Z,2.30
2022-09-09T10:37:43.915Z,2.30
2022-09-09T10:40:24.057Z,2.20
2022-09-09T10:42:52.730Z,2.30
2022-09-09T10:45:23.252Z,2.20
2022-09-09T10:48:05.994Z,2.30
2022-09-09T10:51:00.359Z,2.75
2022-09-09T10:53:34.463Z,2.17
2022-09-09T10:56:06.850Z,2.38
2022-09-09T10:58:39.352Z,2.80
2022-09-09T11:01:12.118Z,2.42
2022-09-09T11:03:42.692Z,2.47
2022-09-09T11:06:15.889Z,2.75
2022-09-09T11:08:44.845Z,2.42
2022-09-09T11:11:17.730Z,2.40
2022-09-09T11:13:49.659Z,2.40
2022-09-09T11:16:20.439Z,2.40
2022-09-09T11:18:50.253Z,2.40
2022-09-09T11:21:23.389Z,2.50
2022-09-09T11:23:53.467Z,2.45
2022-09-09T11:26:24.476Z,2.72
2022-09-09T11:29:04.084Z,2.92
2022-09-09T11:31:42.935Z,2.95
2022-09-09T11:34:19.366Z,2.20
2022-09-09T11:36:58.826Z,2.78
2022-09-09T11:39:41.616Z,2.60
2022-09-09T11:42:11.492Z,2.30
2022-09-09T11:44:40.137Z,2.47
2022-09-09T11:47:19.205Z,3.03
2022-09-09T11:49:49.533Z,3.00
2022-09-09T11:52:24.230Z,2.53
2022-09-09T11:54:52.604Z,2.50
2022-09-09T11:57:26.865Z,2.28
2022-09-09T11:59:55.621Z,2.30
2022-09-09T12:02:27.234Z,2.10
2022-09-09T12:05:01.718Z,2.03
2022-09-09T12:07:35.072Z,2.25
2022-09-09T12:10:06.364Z,2.20
2022-09-09T12:12:37.474Z,2.00
2022-09-09T12:15:22.651Z,2.00
2022-09-09T12:17:52.463Z,2.13
2022-09-09T12:20:23.479Z,2.10
2022-09-09T12:23:13.216Z,1.77
2022-09-09T12:25:49.395Z,1.80
2022-09-09T12:28:18.558Z,1.77
2022-09-09T12:30:51.632Z,2.38
2022-09-09T12:33:20.566Z,1.65
2022-09-09T12:35:51.801Z,1.70
2022-09-09T12:38:24.327Z,2.08
2022-09-09T12:40:58.256Z,1.48
2022-09-09T12:43:27.476Z,1.63
2022-09-09T12:45:58.999Z,1.35
2022-09-09T12:48:32.038Z,1.40
2022-09-09T12:51:01.993Z,1.30
2022-09-09T12:53:32.795Z,1.35
2022-09-09T12:56:03.468Z,1.15
2022-09-09T12:58:34.065Z,1.40
2022-09-09T13:01:06.060Z,1.15
2022-09-09T13:03:34.872Z,1.75
2022-09-09T13:06:15.353Z,1.10
2022-09-09T13:08:44.624Z,1.25
2022-09-09T13:11:15.484Z,1.20
2022-09-09T13:13:44.333Z,1.20
2022-09-09T13:16:22.455Z,1.60
2022-09-09T13:18:50.762Z,0.98
2022-09-09T13:21:20.903Z,1.42
2022-09-09T13:23:51.723Z,1.20
2022-09-09T13:26:24.383Z,1.10
2022-09-09T13:28:53.899Z,1.42
2022-09-09T13:31:24.875Z,1.65
2022-09-09T13:33:54.260Z,1.00
2022-09-09T13:36:32.398Z,0.50
2022-09-09T13:39:01.835Z,0.50
2022-09-09T13:41:32.617Z,0.40
2022-09-09T13:44:01.271Z,0.63
2022-09-09T13:46:35.026Z,0.40
2022-09-09T13:49:03.971Z,0.70
2022-09-09T13:51:41.069Z,0.70
2022-09-09T13:54:11.501Z,0.88
2022-09-09T13:56:40.665Z,0.95
2022-09-09T13:59:12.027Z,1.13
2022-09-09T14:01:40.468Z,1.00
2022-09-09T14:04:09.576Z,1.48
2022-09-09T14:06:39.259Z,0.95
2022-09-09T14:09:09.450Z,1.58
2022-09-09T14:11:37.867Z,1.58
2022-09-09T14:14:06.373Z,1.67
2022-09-09T14:16:34.707Z,2.05
2022-09-09T14:19:02.982Z,1.50
2022-09-09T14:21:31.510Z,1.42
2022-09-09T14:23:59.963Z,1.40
2022-09-09T14:26:31.104Z,1.48
2022-09-09T14:28:59.701Z,1.38
2022-09-09T14:31:28.368Z,1.20
2022-09-09T14:33:56.625Z,1.58
2022-09-09T14:36:25.384Z,1.40
2022-09-09T14:38:53.824Z,1.20
2022-09-09T14:41:23.519Z,1.35
2022-09-09T14:43:54.990Z,1.95
2022-09-09T14:46:24.304Z,1.38
2022-09-09T14:51:23.148Z,1.40
2022-09-09T14:53:54.962Z,1.30
2022-09-09T14:56:24.308Z,1.27
2022-09-09T14:58:56.250Z,1.17
2022-09-09T15:01:24.897Z,1.13
2022-09-09T15:03:53.811Z,1.15
2022-09-09T15:06:22.630Z,1.55
2022-09-09T15:08:53.125Z,1.30
2022-09-09T15:11:22.106Z,1.55
2022-09-09T15:13:50.471Z,1.25
2022-09-09T15:16:20.661Z,1.38
2022-09-09T15:18:49.477Z,1.30
2022-09-09T15:21:20.069Z,1.70
2022-09-09T15:23:49.120Z,1.45
2022-09-09T15:26:17.958Z,1.50
2022-09-09T15:28:48.391Z,1.50
2022-09-09T15:31:18.576Z,1.65
2022-09-09T15:33:50.964Z,3.10
2022-09-09T15:36:20.152Z,2.72
2022-09-09T15:38:48.673Z,2.30
2022-09-09T15:41:17.421Z,2.10
2022-09-09T15:43:47.297Z,2.20
2022-09-09T15:46:27.065Z,2.03
2022-09-09T15:48:57.287Z,2.38
2022-09-09T15:51:43.078Z,2.38
2022-09-09T15:54:13.214Z,3.28
2022-09-09T15:56:41.834Z,4.05
2022-09-09T15:59:10.093Z,4.10
2022-09-09T16:01:40.415Z,3.92
2022-09-09T16:04:10.529Z,3.50
2022-09-09T16:06:38.949Z,4.00
2022-09-09T16:09:08.231Z,4.10
2022-09-09T16:11:37.594Z,5.18
2022-09-09T16:14:06.451Z,4.50
2022-09-09T16:16:36.001Z,5.03
2022-09-09T16:19:06.381Z,4.72
2022-09-09T16:21:38.536Z,5.03
2022-09-09T16:24:08.009Z,4.95
2022-09-09T16:26:37.424Z,5.38
2022-09-09T16:29:05.825Z,5.78
2022-09-09T16:31:35.092Z,5.18
2022-09-09T16:34:04.561Z,4.30
2022-09-09T16:36:35.036Z,3.88
2022-09-09T16:39:05.960Z,3.90
2022-09-09T16:41:35.266Z,2.80
2022-09-09T16:44:04.591Z,3.15
2022-09-09T16:46:34.954Z,2.45
2022-09-09T16:49:04.151Z,2.25
2022-09-09T16:51:33.277Z,2.42
2022-09-09T16:54:02.820Z,2.03
2022-09-09T16:56:34.593Z,1.80
2022-09-09T16:59:03.651Z,2.00
2022-09-09T17:01:33.899Z,2.10
2022-09-09T17:04:03.752Z,2.05
2022-09-09T17:06:33.347Z,2.10
2022-09-09T17:09:02.499Z,2.08
2022-09-09T17:11:32.405Z,2.45
2022-09-09T17:14:01.277Z,2.47
2022-09-09T17:16:30.659Z,2.60
2022-09-09T17:18:59.596Z,2.55
2022-09-09T17:21:28.648Z,2.78
2022-09-09T17:23:57.665Z,2.55
2022-09-09T17:26:27.730Z,2.60
2022-09-09T17:28:59.788Z,2.67
2022-09-09T17:31:29.546Z,2.42
2022-09-09T17:33:58.829Z,2.85
2022-09-09T17:36:27.960Z,2.60
2022-09-09T17:38:56.664Z,2.20
2022-09-09T17:41:25.665Z,2.25
2022-09-09T17:43:54.499Z,2.67
2022-09-09T17:46:24.949Z,2.58
2022-09-09T17:48:54.739Z,2.38
2022-09-09T17:51:26.035Z,2.55
2022-09-09T17:53:55.701Z,2.55
2022-09-09T17:56:26.228Z,2.33
2022-09-09T17:58:55.196Z,2.35
2022-09-09T18:01:27.959Z,2.17
2022-09-09T18:03:57.885Z,1.80
2022-09-09T18:06:28.250Z,1.77
2022-09-09T18:08:57.432Z,2.13
2022-09-09T18:11:26.837Z,2.20
2022-09-09T18:13:55.912Z,1.65
2022-09-09T18:16:26.919Z,2.25
2022-09-09T18:18:56.196Z,2.08
2022-09-09T18:21:25.869Z,2.50
2022-09-09T18:23:54.350Z,2.33
2022-09-09T18:26:26.144Z,2.38
2022-09-09T18:28:55.225Z,2.80
2022-09-09T18:31:24.513Z,2.58
2022-09-09T18:33:54.761Z,3.00
2022-09-09T18:36:29.491Z,2.85
2022-09-09T18:38:59.448Z,3.38
2022-09-09T18:41:28.877Z,2.75
2022-09-09T18:43:58.794Z,3.10
2022-09-09T18:46:28.035Z,3.10
2022-09-09T18:48:58.784Z,2.88
2022-09-09T18:51:29.574Z,3.10
2022-09-09T18:53:59.158Z,2.53
2022-09-09T18:56:27.490Z,2.65
2022-09-09T18:58:56.723Z,2.60
2022-09-09T19:01:25.847Z,3.00
2022-09-09T19:03:54.318Z,2.80
2022-09-09T19:06:25.589Z,2.83
2022-09-09T19:08:56.338Z,2.70
2022-09-09T19:11:27.761Z,3.05
2022-09-09T19:13:56.693Z,3.45
2022-09-09T19:16:26.001Z,2.58
2022-09-09T19:18:54.362Z,2.97
2022-09-09T19:21:24.780Z,2.50
2022-09-09T19:23:56.313Z,2.72
2022-09-09T19:26:25.344Z,2.28
2022-09-09T19:28:53.668Z,2.90
2022-09-09T19:31:24.054Z,2.67
2022-09-09T19:33:52.414Z,2.92
2022-09-09T19:36:20.926Z,3.17
2022-09-09T19:38:51.068Z,3.60
2022-09-09T19:41:20.174Z,3.10
2022-09-09T19:43:49.739Z,2.78
2022-09-09T19:46:19.442Z,3.08
2022-09-09T19:48:48.496Z,2.50
2022-09-09T19:51:17.955Z,2.70
2022-09-09T19:53:48.448Z,2.45
2022-09-09T19:56:18.877Z,2.58
2022-09-09T19:58:47.982Z,2.70
2022-09-09T20:01:17.495Z,2.22
2022-09-09T20:03:47.896Z,2.13
2022-09-09T20:06:17.140Z,2.20
2022-09-09T20:08:46.311Z,2.05
2022-09-09T20:11:15.516Z,2.00
2022-09-09T20:13:45.602Z,2.53
2022-09-09T20:16:17.176Z,2.15
2022-09-09T20:18:46.629Z,2.15
2022-09-09T20:21:16.490Z,2.10
2022-09-09T20:23:46.234Z,2.20
2022-09-09T20:26:18.586Z,2.30
2022-09-09T20:28:50.271Z,2.90
2022-09-09T20:31:20.105Z,2.20
2022-09-09T20:33:49.219Z,2.17
2022-09-09T20:36:18.655Z,2.20
2022-09-09T20:38:48.199Z,2.20
2022-09-09T20:41:18.715Z,2.17
2022-09-09T20:43:52.854Z,2.35
2022-09-09T20:46:22.093Z,2.50
2022-09-09T20:48:51.394Z,2.42
2022-09-09T20:51:21.225Z,3.10
2022-09-09T20:53:49.476Z,2.45
2022-09-09T20:56:18.163Z,2.45
2022-09-09T20:58:47.808Z,3.25
2022-09-09T21:01:19.277Z,3.00
2022-09-09T21:03:48.062Z,2.60
2022-09-09T21:06:18.164Z,2.30
2022-09-09T21:08:46.763Z,2.97
2022-09-09T21:11:15.415Z,2.78
2022-09-09T21:13:43.776Z,2.50
2022-09-09T21:16:13.968Z,2.75
2022-09-09T21:18:44.442Z,2.75
2022-09-09T21:21:13.118Z,2.58
2022-09-09T21:23:41.431Z,2.42
2022-09-09T21:26:10.125Z,2.85
2022-09-09T21:28:38.737Z,3.25
2022-09-09T21:31:07.514Z,3.25
2022-09-09T21:33:36.145Z,2.63
2022-09-09T21:36:06.663Z,3.17
2022-09-09T21:38:35.444Z,3.20
2022-09-09T21:41:04.440Z,2.92
2022-09-09T21:43:33.092Z,3.25
2022-09-09T21:46:04.160Z,3.55
2022-09-09T21:48:32.464Z,3.13
2022-09-09T21:51:04.003Z,3.50
2022-09-09T21:53:33.803Z,3.75
2022-09-09T21:56:02.881Z,3.67
2022-09-09T21:58:31.251Z,3.63
2022-09-09T22:00:59.573Z,4.28
2022-09-09T22:03:28.180Z,3.95
2022-09-09T22:05:56.407Z,4.05
2022-09-09T22:08:24.640Z,4.43
2022-09-09T22:10:54.236Z,4.57
2022-09-09T22:13:22.489Z,4.65
2022-09-09T22:15:51.064Z,4.57
2022-09-09T22:18:19.421Z,4.40
2022-09-09T22:20:48.192Z,4.38
2022-09-09T22:23:17.311Z,3.90
2022-09-09T22:25:45.727Z,4.20
2022-09-09T22:28:16.680Z,3.35
2022-09-09T22:30:58.695Z,3.40
2022-09-09T22:33:28.388Z,2.88
2022-09-09T22:35:57.340Z,2.67
2022-09-09T22:38:26.998Z,2.67
2022-09-09T22:40:55.443Z,3.17
2022-09-09T22:43:25.013Z,2.60
2022-09-09T22:45:53.248Z,3.03
2022-09-09T22:48:21.611Z,2.45
2022-09-09T22:50:49.908Z,1.90
2022-09-09T22:53:18.766Z,1.85
2022-09-09T22:55:58.468Z,1.90
2022-09-09T22:58:30.146Z,2.35
2022-09-09T23:00:59.008Z,2.80
2022-09-09T23:03:27.422Z,2.65
2022-09-09T23:05:57.434Z,2.47
2022-09-09T23:08:26.597Z,2.88
2022-09-09T23:10:55.889Z,2.70
2022-09-09T23:13:25.350Z,2.58
2022-09-09T23:15:55.119Z,2.10
2022-09-09T23:18:24.283Z,1.75
2022-09-09T23:21:00.606Z,1.92
2022-09-09T23:23:29.154Z,1.10
2022-09-09T23:25:57.427Z,1.30
2022-09-09T23:28:26.805Z,1.60
2022-09-09T23:30:56.462Z,1.30
2022-09-09T23:33:24.767Z,1.20
2022-09-09T23:36:00.085Z,1.45
2022-09-09T23:38:28.623Z,1.17
2022-09-09T23:40:57.626Z,1.42
2022-09-09T23:43:26.801Z,1.20
2022-09-09T23:45:56.927Z,1.20
2022-09-09T23:48:28.240Z,1.40
2022-09-09T23:50:56.508Z,1.27
2022-09-09T23:53:24.844Z,1.30
2022-09-09T23:55:53.745Z,1.38
2022-09-09T23:58:22.067Z,1.60
